Time;durP1;ratioP1;P1;durP2;ratioP2;P2;SDS_P1;SDS_P2;PMS_P1;PMS_P2;Temp;Humidity;BMP_temperature;BMP_pressure;BME280_temperature;BME280_humidity;BME280_pressure;Samples;Min_cycle;Max_cycle;Signal;HPM_P1;HPM_P2
2022/06/22 00:00:35;;;;;;;8.57;5.07;;;19.00;75.20;;;;;;5072333;28;20036;-65
2022/06/22 00:03:03;;;;;;;12.38;4.88;;;18.90;75.10;;;;;;5073297;28;20040;-65
2022/06/22 00:05:38;;;;;;;6.30;4.20;;;18.90;75.00;;;;;;5057815;28;20055;-65
2022/06/22 00:08:07;;;;;;;13.15;4.93;;;18.90;74.90;;;;;;5063115;28;20035;-65
2022/06/22 00:11:14;;;;;;;9.13;5.32;;;18.80;74.80;;;;;;5069644;28;20388;-65
2022/06/22 00:13:48;;;;;;;5.60;4.47;;;18.80;75.10;;;;;;5071254;28;20040;-65
2022/06/22 00:16:25;;;;;;;9.98;4.60;;;18.80;75.30;;;;;;5062645;28;20147;-65
2022/06/22 00:18:52;;;;;;;9.13;4.90;;;18.80;75.90;;;;;;5070353;28;20024;-65
2022/06/22 00:21:39;;;;;;;11.20;5.20;;;18.70;75.30;;;;;;5059846;28;20029;-65
2022/06/22 00:24:25;;;;;;;6.18;3.97;;;18.70;75.70;;;;;;5053745;28;20025;-65
2022/06/22 00:27:06;;;;;;;8.90;4.55;;;18.60;75.50;;;;;;5045724;28;20037;-65
2022/06/22 00:29:34;;;;;;;10.18;4.88;;;18.60;75.40;;;;;;5071628;28;20033;-65
2022/06/22 00:32:31;;;;;;;5.53;3.88;;;18.50;75.30;;;;;;5053354;28;20079;-65
2022/06/22 00:34:57;;;;;;;13.55;6.40;;;18.50;75.10;;;;;;5064787;28;20498;-65
2022/06/22 00:37:36;;;;;;;8.65;5.18;;;18.50;75.20;;;;;;5061377;28;20029;-65
2022/06/22 00:40:14;;;;;;;11.43;6.05;;;18.40;75.70;;;;;;5071470;28;20029;-65
2022/06/22 00:42:49;;;;;;;9.18;5.50;;;18.50;76.60;;;;;;5057150;28;20036;-65
2022/06/22 00:45:29;;;;;;;9.60;5.70;;;18.40;76.80;;;;;;5052990;28;20024;-65
2022/06/22 00:48:23;;;;;;;8.30;5.32;;;18.40;77.20;;;;;;5065852;28;20037;-65
2022/06/22 00:50:59;;;;;;;9.55;4.63;;;18.40;77.50;;;;;;5060223;28;20036;-65
2022/06/22 00:53:35;;;;;;;7.90;4.70;;;18.30;77.70;;;;;;5072292;28;20032;-65
2022/06/22 00:56:16;;;;;;;7.78;4.50;;;18.30;78.00;;;;;;5068725;28;20427;-65
2022/06/22 00:58:55;;;;;;;9.25;4.63;;;18.20;78.20;;;;;;5072121;28;20388;-65
2022/06/22 01:01:46;;;;;;;9.05;4.63;;;18.30;78.40;;;;;;5060303;28;20491;-65
2022/06/22 01:04:21;;;;;;;8.05;5.13;;;18.20;78.40;;;;;;5057457;28;20358;-65
2022/06/22 01:06:55;;;;;;;9.85;5.28;;;18.10;79.10;;;;;;5065805;28;20036;-65
2022/06/22 01:09:41;;;;;;;11.80;5.93;;;18.10;78.40;;;;;;5060544;28;20571;-65
2022/06/22 01:12:50;;;;;;;10.73;6.00;;;18.10;79.40;;;;;;5059856;28;20032;-65
2022/06/22 01:15:30;;;;;;;10.23;5.32;;;18.10;79.10;;;;;;5047955;28;20087;-65
2022/06/22 01:18:04;;;;;;;11.55;3.20;;;18.00;79.30;;;;;;5062120;28;20415;-65
2022/06/22 01:20:52;;;;;;;5.50;3.83;;;18.00;79.40;;;;;;5066279;28;20439;-65
2022/06/22 01:23:51;;;;;;;8.38;4.82;;;17.90;79.90;;;;;;5053510;28;20090;-65
2022/06/22 01:26:16;;;;;;;8.45;4.90;;;18.00;79.40;;;;;;5065758;28;20028;-65
2022/06/22 01:29:00;;;;;;;11.52;4.93;;;17.90;79.40;;;;;;5070841;28;20487;-65
2022/06/22 01:31:30;;;;;;;11.30;5.70;;;17.90;79.50;;;;;;5071174;28;20383;-65
2022/06/22 01:33:56;;;;;;;9.32;5.25;;;17.80;79.60;;;;;;5071422;28;20074;-65
2022/06/22 01:36:28;;;;;;;10.82;5.18;;;17.80;79.80;;;;;;5071239;28;20133;-65
2022/06/22 01:38:55;;;;;;;12.18;5.25;;;17.80;79.80;;;;;;5050497;28;20032;-65
2022/06/22 01:41:37;;;;;;;9.70;5.00;;;17.80;79.60;;;;;;5053393;28;20480;-65
2022/06/22 01:44:12;;;;;;;10.48;5.43;;;17.70;79.20;;;;;;5059117;28;20537;-66
2022/06/22 01:46:46;;;;;;;8.63;5.28;;;17.70;79.10;;;;;;5067993;28;20033;-65
2022/06/22 01:49:24;;;;;;;7.82;5.00;;;17.60;78.90;;;;;;5058383;28;20016;-65
2022/06/22 01:51:55;;;;;;;5.43;4.47;;;17.60;78.90;;;;;;5064907;28;20029;-65
2022/06/22 01:54:29;;;;;;;5.47;3.95;;;17.60;78.60;;;;;;5069268;28;20123;-65
2022/06/22 01:57:30;;;;;;;9.10;4.20;;;17.60;78.30;;;;;;5070371;28;20024;-65
2022/06/22 02:00:04;;;;;;;9.20;4.20;;;17.60;78.10;;;;;;5049416;28;20380;-65
2022/06/22 02:03:00;;;;;;;9.65;4.15;;;17.50;78.00;;;;;;5072115;28;20040;-65
2022/06/22 02:05:31;;;;;;;7.43;4.55;;;17.50;78.10;;;;;;5072349;28;20176;-65
2022/06/22 02:08:12;;;;;;;13.20;4.60;;;17.40;78.20;;;;;;5055792;28;20049;-65
2022/06/22 02:10:44;;;;;;;7.10;4.13;;;17.40;78.20;;;;;;5071204;28;20430;-66
2022/06/22 02:13:31;;;;;;;10.25;4.40;;;17.30;78.30;;;;;;5062905;28;20056;-65
2022/06/22 02:16:27;;;;;;;10.35;4.70;;;17.40;78.60;;;;;;5057240;28;20489;-65
2022/06/22 02:18:59;;;;;;;7.82;4.57;;;17.30;78.80;;;;;;5065326;28;20039;-65
2022/06/22 02:21:26;;;;;;;5.40;3.20;;;17.30;79.00;;;;;;5059500;28;20031;-65
2022/06/22 02:24:04;;;;;;;3.65;2.75;;;17.20;78.70;;;;;;5075678;28;20021;-65
2022/06/22 02:26:38;;;;;;;4.07;3.25;;;17.20;78.00;;;;;;5073292;28;20032;-65
2022/06/22 02:29:04;;;;;;;6.07;3.28;;;17.10;78.10;;;;;;5073934;28;20037;-65
2022/06/22 02:31:32;;;;;;;6.40;3.70;;;17.10;78.40;;;;;;5074899;28;20043;-65
2022/06/22 02:33:58;;;;;;;9.23;4.28;;;17.10;78.90;;;;;;5061793;28;20033;-65
2022/06/22 02:36:27;;;;;;;7.63;4.13;;;17.00;79.10;;;;;;5067410;28;20432;-65
2022/06/22 02:38:56;;;;;;;6.07;3.80;;;17.00;79.20;;;;;;5065237;28;20495;-65
2022/06/22 02:44:31;;;;;;;6.95;4.20;;;16.90;78.90;;;;;;5074288;28;20025;-65
2022/06/22 02:47:16;;;;;;;6.22;3.78;;;16.90;78.70;;;;;;5065231;28;20043;-65
2022/06/22 02:49:50;;;;;;;6.90;4.00;;;16.90;78.50;;;;;;5066002;28;20029;-65
2022/06/22 02:52:17;;;;;;;19.75;5.60;;;16.80;78.30;;;;;;5070727;28;20601;-65
2022/06/22 02:54:51;;;;;;;37.20;7.43;;;16.80;78.20;;;;;;5074736;28;20036;-65
2022/06/22 02:57:55;;;;;;;46.25;6.97;;;16.70;78.00;;;;;;5059212;28;20047;-66
2022/06/22 03:00:31;;;;;;;8.32;4.53;;;16.70;77.70;;;;;;5066352;28;20341;-65
2022/06/22 03:03:20;;;;;;;6.68;4.30;;;16.60;77.40;;;;;;5068746;28;20128;-66
2022/06/22 03:05:51;;;;;;;6.82;4.20;;;16.60;77.50;;;;;;5068624;28;20040;-65
2022/06/22 03:08:20;;;;;;;5.97;4.07;;;16.50;77.70;;;;;;5072445;28;20029;-65
2022/06/22 03:11:01;;;;;;;6.93;4.32;;;16.60;77.50;;;;;;5067100;28;20028;-65
2022/06/22 03:13:39;;;;;;;7.43;4.22;;;16.60;77.70;;;;;;5069606;28;20048;-65
2022/06/22 03:16:07;;;;;;;5.72;4.25;;;16.50;77.90;;;;;;5070405;28;20041;-65
2022/06/22 03:18:39;;;;;;;6.38;4.00;;;16.50;78.20;;;;;;5069895;28;20082;-65
2022/06/22 03:21:11;;;;;;;5.65;3.58;;;16.50;78.70;;;;;;5065518;28;20057;-65
2022/06/22 03:24:02;;;;;;;3.60;2.80;;;16.50;78.80;;;;;;5070348;28;20040;-65
2022/06/22 03:26:34;;;;;;;5.40;3.13;;;16.40;78.80;;;;;;5069744;28;20287;-65
2022/06/22 03:29:08;;;;;;;5.05;3.03;;;16.40;78.80;;;;;;5062790;28;20447;-66
2022/06/22 03:31:45;;;;;;;7.05;3.67;;;16.30;79.00;;;;;;5055682;28;20090;-66
2022/06/22 03:34:30;;;;;;;3.33;2.50;;;16.30;79.10;;;;;;5071417;28;20021;-66
2022/06/22 03:37:02;;;;;;;4.43;2.83;;;16.30;79.10;;;;;;5066980;28;20571;-65
2022/06/22 03:39:33;;;;;;;4.38;3.10;;;16.30;79.00;;;;;;5067795;28;20207;-65
2022/06/22 03:42:06;;;;;;;3.67;2.92;;;16.20;79.00;;;;;;5068481;28;20383;-65
2022/06/22 03:45:07;;;;;;;3.42;2.58;;;16.20;79.40;;;;;;5068892;28;20020;-65
2022/06/22 03:47:44;;;;;;;6.40;2.50;;;16.20;79.30;;;;;;5063087;28;20070;-65
2022/06/22 03:50:40;;;;;;;5.07;2.67;;;16.20;79.20;;;;;;5071530;28;20106;-65
2022/06/22 03:53:14;;;;;;;3.25;2.60;;;16.20;79.30;;;;;;5066349;28;20021;-65
2022/06/22 03:55:47;;;;;;;3.38;2.60;;;16.10;79.90;;;;;;5066770;28;20469;-65
2022/06/22 03:58:14;;;;;;;4.43;2.75;;;16.10;79.40;;;;;;5067116;28;20029;-65
2022/06/22 04:00:42;;;;;;;6.70;3.25;;;16.10;79.70;;;;;;5067930;28;20047;-65
2022/06/22 04:03:10;;;;;;;9.32;3.70;;;16.10;79.90;;;;;;5072486;28;20032;-65
2022/06/22 04:05:45;;;;;;;3.85;2.88;;;16.10;80.30;;;;;;5065539;28;20040;-66
2022/06/22 04:08:32;;;;;;;3.95;3.03;;;16.00;80.50;;;;;;5067477;28;20052;-65
2022/06/22 04:11:25;;;;;;;4.03;2.92;;;16.10;80.70;;;;;;5068150;28;20028;-65
2022/06/22 04:13:57;;;;;;;3.47;2.67;;;16.00;80.80;;;;;;5065699;28;20054;-65
2022/06/22 04:16:30;;;;;;;4.97;3.30;;;16.00;80.80;;;;;;5071421;28;20103;-65
2022/06/22 04:19:05;;;;;;;4.40;3.13;;;16.00;81.10;;;;;;5069431;28;20472;-65
2022/06/22 04:21:41;;;;;;;6.78;3.08;;;16.00;81.30;;;;;;5065464;28;20512;-65
2022/06/22 04:24:18;;;;;;;6.82;3.75;;;16.00;81.50;;;;;;5067918;28;20051;-65
2022/06/22 04:27:18;;;;;;;7.32;3.38;;;16.00;82.00;;;;;;5069249;28;20028;-65
2022/06/22 04:29:46;;;;;;;8.63;4.28;;;16.00;82.60;;;;;;5067872;28;20020;-65
2022/06/22 04:32:19;;;;;;;7.93;4.13;;;16.00;83.50;;;;;;5064140;28;20063;-65
2022/06/22 04:34:58;;;;;;;7.78;4.07;;;16.00;84.20;;;;;;5069459;28;20051;-65
2022/06/22 04:37:28;;;;;;;7.22;4.03;;;16.00;84.70;;;;;;5061885;28;20396;-65
2022/06/22 04:40:05;;;;;;;8.27;4.80;;;16.00;85.20;;;;;;5065380;28;20033;-66
2022/06/22 04:42:30;;;;;;;7.05;4.57;;;16.00;85.80;;;;;;5063338;28;20044;-66
2022/06/22 04:44:57;;;;;;;11.02;5.15;;;16.10;86.00;;;;;;5071433;28;20029;-63
2022/06/22 04:47:29;;;;;;;9.48;4.85;;;16.00;86.50;;;;;;5060504;28;20392;-62
2022/06/22 04:50:01;;;;;;;8.88;4.78;;;16.00;87.10;;;;;;5052284;28;20128;-63
2022/06/22 04:52:32;;;;;;;8.57;4.93;;;16.10;87.60;;;;;;5068402;28;20041;-63
2022/06/22 04:55:03;;;;;;;13.20;5.30;;;16.10;88.20;;;;;;5070388;28;20132;-62
2022/06/22 04:57:42;;;;;;;8.43;5.50;;;16.10;88.70;;;;;;5058663;28;20136;-64
2022/06/22 05:00:16;;;;;;;10.90;5.28;;;16.10;89.70;;;;;;5068888;28;20499;-64
2022/06/22 05:02:48;;;;;;;16.95;6.05;;;16.10;89.60;;;;;;5070077;28;20028;-63
2022/06/22 05:05:22;;;;;;;11.88;6.18;;;16.10;90.00;;;;;;5068204;28;20065;-64
2022/06/22 05:08:03;;;;;;;8.63;6.10;;;16.10;90.10;;;;;;5066050;28;20497;-64
2022/06/22 05:10:49;;;;;;;13.35;6.78;;;16.20;90.30;;;;;;5065137;28;20078;-64
2022/06/22 05:13:19;;;;;;;12.07;5.72;;;16.20;90.50;;;;;;5068304;28;20044;-64
2022/06/22 05:15:48;;;;;;;10.93;6.10;;;16.20;90.70;;;;;;5069368;28;20103;-64
2022/06/22 05:18:30;;;;;;;15.25;7.10;;;16.20;90.90;;;;;;5068359;28;20510;-65
2022/06/22 05:21:11;;;;;;;13.73;6.53;;;16.20;91.10;;;;;;5068179;28;20032;-64
2022/06/22 05:23:37;;;;;;;13.45;8.10;;;16.30;91.20;;;;;;5066047;28;20020;-64
2022/06/22 05:26:07;;;;;;;12.70;8.00;;;16.30;91.30;;;;;;5066517;28;20388;-64
2022/06/22 05:28:43;;;;;;;16.13;7.82;;;16.30;91.60;;;;;;5066181;28;20035;-66
2022/06/22 05:31:15;;;;;;;13.02;7.15;;;16.30;91.70;;;;;;5068800;28;20036;-65
2022/06/22 05:33:46;;;;;;;12.45;7.38;;;16.40;91.80;;;;;;5067442;28;20036;-66
2022/06/22 05:36:14;;;;;;;18.42;8.13;;;16.40;91.90;;;;;;5065605;28;20036;-66
2022/06/22 05:38:44;;;;;;;15.15;7.78;;;16.50;91.90;;;;;;5069731;28;20036;-66
2022/06/22 05:41:16;;;;;;;14.85;8.07;;;16.60;92.00;;;;;;5068514;28;20388;-67
2022/06/22 05:43:42;;;;;;;14.52;9.05;;;16.60;91.90;;;;;;5066173;28;20059;-66
2022/06/22 05:46:10;;;;;;;13.10;8.00;;;16.60;91.90;;;;;;5065179;28;20048;-65
2022/06/22 05:48:42;;;;;;;12.95;7.97;;;16.70;92.00;;;;;;5068364;28;20547;-65
2022/06/22 05:51:25;;;;;;;14.40;7.50;;;16.70;92.20;;;;;;5064394;28;20383;-65
2022/06/22 05:53:59;;;;;;;15.75;8.57;;;16.80;92.20;;;;;;5068021;28;20044;-66
2022/06/22 05:56:28;;;;;;;12.30;8.98;;;16.80;92.30;;;;;;5061690;28;20540;-66
2022/06/22 05:59:19;;;;;;;14.60;9.60;;;16.90;92.40;;;;;;5069976;28;20027;-66
2022/06/22 06:01:47;;;;;;;15.38;8.68;;;16.90;92.70;;;;;;5064701;28;20031;-66
2022/06/22 06:04:16;;;;;;;13.98;9.00;;;17.00;92.70;;;;;;5070609;28;20070;-66
2022/06/22 06:06:42;;;;;;;15.82;8.45;;;17.00;92.70;;;;;;5062285;28;20388;-66
2022/06/22 06:09:17;;;;;;;16.88;7.88;;;17.10;92.80;;;;;;5062443;28;20082;-66
2022/06/22 06:11:52;;;;;;;15.73;7.82;;;17.10;92.50;;;;;;5058488;28;20787;-66
2022/06/22 06:14:26;;;;;;;21.40;9.25;;;17.10;91.90;;;;;;5066334;28;20415;-66
2022/06/22 06:16:55;;;;;;;14.88;7.57;;;17.10;92.10;;;;;;5063888;28;20064;-66
2022/06/22 06:19:25;;;;;;;19.15;8.00;;;17.20;92.20;;;;;;5066978;28;20074;-66
2022/06/22 06:21:54;;;;;;;16.08;7.20;;;17.10;91.70;;;;;;5070933;28;20029;-66
2022/06/22 06:27:38;;;;;;;18.02;6.30;;;17.30;91.40;;;;;;5059304;28;20041;-68
2022/06/22 06:30:54;;;;;;;13.63;5.80;;;17.30;91.40;;;;;;5059337;28;20032;-65
2022/06/22 06:33:31;;;;;;;13.85;6.05;;;17.40;91.50;;;;;;5056883;28;20054;-66
2022/06/22 06:36:06;;;;;;;10.52;5.53;;;17.40;91.50;;;;;;5067050;28;20515;-66
2022/06/22 06:38:42;;;;;;;10.38;4.00;;;17.50;91.70;;;;;;5051620;28;20469;-66
2022/06/22 06:41:17;;;;;;;12.65;3.30;;;17.60;91.80;;;;;;5064853;28;20047;-66
2022/06/22 06:43:53;;;;;;;11.23;3.58;;;17.60;91.60;;;;;;5071684;28;20056;-66
2022/06/22 06:46:38;;;;;;;12.30;3.70;;;17.70;91.50;;;;;;5056692;28;20476;-66
2022/06/22 06:49:25;;;;;;;11.77;3.88;;;17.80;91.30;;;;;;5068457;28;20075;-66
2022/06/22 06:52:03;;;;;;;10.95;3.85;;;17.80;91.30;;;;;;5055087;28;20025;-66
2022/06/22 06:54:47;;;;;;;9.93;4.25;;;17.90;91.20;;;;;;5062108;28;20082;-66
2022/06/22 06:57:19;;;;;;;10.23;4.43;;;18.00;91.30;;;;;;5070330;28;20056;-66
2022/06/22 07:00:00;;;;;;;9.85;4.68;;;18.00;91.20;;;;;;5066433;28;20056;-65
2022/06/22 07:02:35;;;;;;;10.65;4.38;;;18.10;91.30;;;;;;5061418;28;20036;-65
2022/06/22 07:05:05;;;;;;;9.45;3.85;;;18.10;91.10;;;;;;5073576;28;20122;-66
2022/06/22 07:07:52;;;;;;;9.18;4.68;;;18.20;91.00;;;;;;5073915;28;20375;-65
2022/06/22 07:10:33;;;;;;;9.48;4.47;;;18.30;91.00;;;;;;5071940;28;20371;-66
2022/06/22 07:13:11;;;;;;;9.07;4.03;;;18.30;91.00;;;;;;5072001;28;20539;-66
2022/06/22 07:15:41;;;;;;;10.80;3.70;;;18.40;90.90;;;;;;5071456;28;20094;-66
2022/06/22 07:18:22;;;;;;;11.25;4.28;;;18.50;90.70;;;;;;5072724;28;20040;-66
2022/06/22 07:21:20;;;;;;;12.27;4.47;;;18.50;90.50;;;;;;5074310;28;20029;-66
2022/06/22 07:23:57;;;;;;;12.65;4.40;;;18.60;90.60;;;;;;5034077;28;20115;-66
2022/06/22 07:26:41;;;;;;;10.98;4.32;;;18.60;90.80;;;;;;5071911;28;20047;-65
2022/06/22 07:29:22;;;;;;;11.30;4.28;;;18.70;90.50;;;;;;5072831;28;20498;-66
2022/06/22 07:32:13;;;;;;;11.88;4.90;;;18.70;90.10;;;;;;5062092;28;20028;-67
2022/06/22 07:34:50;;;;;;;10.85;4.68;;;18.70;90.20;;;;;;5064265;28;20040;-66
2022/06/22 07:37:22;;;;;;;11.52;4.55;;;18.70;90.50;;;;;;5072937;28;20498;-66
2022/06/22 07:39:57;;;;;;;11.38;4.50;;;18.80;90.60;;;;;;5073602;28;20028;-66
2022/06/22 07:42:24;;;;;;;11.25;4.35;;;18.80;90.70;;;;;;5072832;28;20044;-66
2022/06/22 07:44:50;;;;;;;12.65;4.13;;;18.90;90.50;;;;;;5055795;28;20043;-66
2022/06/22 07:47:29;;;;;;;8.75;3.70;;;18.90;90.50;;;;;;5066346;28;20021;-66
2022/06/22 07:50:06;;;;;;;15.07;4.88;;;19.00;90.30;;;;;;5054955;28;20028;-66
2022/06/22 07:52:39;;;;;;;10.93;3.72;;;19.00;90.10;;;;;;5052226;28;20074;-66
2022/06/22 07:55:31;;;;;;;17.63;4.15;;;19.00;90.00;;;;;;5066580;28;20408;-66
2022/06/22 07:58:18;;;;;;;8.65;3.67;;;19.00;89.10;;;;;;5072934;28;20040;-66
2022/06/22 08:00:47;;;;;;;12.68;4.75;;;19.00;88.90;;;;;;5070702;28;20086;-66
2022/06/22 08:03:30;;;;;;;11.35;3.92;;;19.00;88.70;;;;;;5072984;28;20039;-66
2022/06/22 08:05:59;;;;;;;;;;;19.00;89.00;;;;;;5063959;28;20032;-66
2022/06/22 08:08:35;;;;;;;8.52;3.10;;;19.00;88.70;;;;;;5071751;28;19962;-66
2022/06/22 08:11:14;;;;;;;10.50;3.10;;;19.10;88.00;;;;;;5072950;28;20029;-66
2022/06/22 08:13:47;;;;;;;7.82;2.85;;;19.10;87.60;;;;;;5070130;28;20037;-66
2022/06/22 08:16:18;;;;;;;7.32;2.95;;;19.20;87.00;;;;;;5066630;28;20043;-66
2022/06/22 08:18:44;;;;;;;6.78;2.80;;;19.20;86.50;;;;;;5071908;28;20035;-66
2022/06/22 08:21:16;;;;;;;13.88;3.60;;;19.30;86.10;;;;;;5068927;28;20033;-66
2022/06/22 08:23:43;;;;;;;8.55;2.60;;;19.30;85.30;;;;;;5063244;28;20024;-66
2022/06/22 08:26:22;;;;;;;12.45;2.95;;;19.50;84.90;;;;;;5071410;28;20090;-66
2022/06/22 08:28:49;;;;;;;10.90;3.40;;;19.50;84.60;;;;;;5071211;28;20105;-66
2022/06/22 08:31:15;;;;;;;15.13;3.38;;;19.60;84.20;;;;;;5067335;28;20595;-66
2022/06/22 08:33:46;;;;;;;6.15;3.00;;;19.60;84.00;;;;;;5061332;28;20119;-66
2022/06/22 08:36:22;;;;;;;8.32;2.88;;;19.60;84.40;;;;;;5069593;28;20045;-66
2022/06/22 08:39:09;;;;;;;12.20;3.13;;;19.70;84.00;;;;;;5072368;28;20387;-66
2022/06/22 08:41:52;;;;;;;8.07;2.60;;;19.80;83.60;;;;;;5070207;28;20046;-66
2022/06/22 08:44:40;;;;;;;8.70;3.37;;;19.80;83.60;;;;;;5070012;28;20036;-66
2022/06/22 08:47:11;;;;;;;8.73;2.88;;;19.90;83.00;;;;;;5071755;28;20277;-66
2022/06/22 08:50:16;;;;;;;9.57;3.58;;;20.00;83.30;;;;;;5064716;28;20033;-66
2022/06/22 08:53:14;;;;;;;9.05;3.05;;;20.00;82.60;;;;;;5052302;28;20033;-64
2022/06/22 08:56:16;;;;;;;11.27;2.88;;;20.10;82.60;;;;;;5064467;28;20110;-64
2022/06/22 08:59:31;;;;;;;7.07;3.05;;;20.00;82.70;;;;;;5065045;28;20038;-64
2022/06/22 09:02:08;;;;;;;11.25;3.15;;;20.10;83.00;;;;;;5047468;28;20059;-65
2022/06/22 09:04:37;;;;;;;13.25;3.75;;;20.20;83.20;;;;;;5067482;28;20052;-64
2022/06/22 09:07:21;;;;;;;8.40;2.80;;;20.30;83.10;;;;;;5063924;28;20029;-64
2022/06/22 09:10:10;;;;;;;10.20;3.70;;;20.40;83.30;;;;;;5070283;28;21293;-65
2022/06/22 09:12:53;;;;;;;8.27;3.78;;;20.40;83.40;;;;;;5065830;28;20432;-64
2022/06/22 09:15:39;;;;;;;14.45;3.45;;;20.50;84.00;;;;;;5067446;28;20733;-64
2022/06/22 09:18:47;;;;;;;11.20;4.10;;;20.50;83.20;;;;;;5064503;28;20021;-64
2022/06/22 09:21:21;;;;;;;15.60;4.40;;;20.60;83.90;;;;;;5067572;28;20427;-64
2022/06/22 09:24:06;;;;;;;9.43;4.30;;;20.60;84.30;;;;;;5060468;28;20037;-64
2022/06/22 09:26:36;;;;;;;15.25;3.40;;;20.60;83.90;;;;;;5065110;28;20036;-64
2022/06/22 09:29:23;;;;;;;17.17;3.75;;;20.60;83.50;;;;;;5063861;28;20039;-63
2022/06/22 09:32:10;;;;;;;11.95;3.88;;;20.60;84.00;;;;;;5070249;28;20017;-64
2022/06/22 09:35:13;;;;;;;8.38;3.53;;;20.70;84.00;;;;;;5059150;28;20037;-64
2022/06/22 09:37:44;;;;;;;13.20;3.83;;;20.80;84.50;;;;;;5058577;28;20032;-64
2022/06/22 09:40:45;;;;;;;7.10;3.22;;;20.90;84.30;;;;;;5067083;28;20078;-64
2022/06/22 09:43:40;;;;;;;10.02;3.42;;;20.90;84.10;;;;;;5069098;28;20024;-65
2022/06/22 09:46:44;;;;;;;10.10;4.25;;;20.90;84.40;;;;;;5067881;28;20384;-64
2022/06/22 09:49:25;;;;;;;;;;;20.90;84.40;;;;;;5062430;28;20036;-64
2022/06/22 09:52:12;;;;;;;10.70;3.72;;;21.00;84.60;;;;;;5065307;28;20322;-64
2022/06/22 09:58:19;;;;;;;9.38;3.78;;;21.00;84.10;;;;;;5060889;28;20494;-64
2022/06/22 10:01:12;;;;;;;11.32;3.55;;;21.10;83.60;;;;;;5070847;28;20116;-65
2022/06/22 10:03:42;;;;;;;9.50;3.67;;;21.20;83.60;;;;;;5061994;28;20090;-65
2022/06/22 10:06:32;;;;;;;6.95;3.33;;;21.20;83.40;;;;;;5065107;28;20033;-64
2022/06/22 10:09:35;;;;;;;10.45;3.42;;;21.20;83.20;;;;;;5062200;28;20051;-64
2022/06/22 10:12:28;;;;;;;7.47;3.00;;;21.30;83.20;;;;;;5065340;28;20059;-65
2022/06/22 10:15:03;;;;;;;8.37;3.23;;;21.30;83.30;;;;;;5064603;28;20040;-66
2022/06/22 10:17:32;;;;;;;8.88;3.17;;;21.40;82.80;;;;;;5063794;28;20040;-64
2022/06/22 10:20:37;;;;;;;7.78;3.53;;;21.40;81.70;;;;;;5063502;28;20032;-64
2022/06/22 10:23:28;;;;;;;11.45;3.28;;;21.50;81.40;;;;;;5056994;28;20079;-64
2022/06/22 10:26:17;;;;;;;11.95;3.42;;;21.60;81.40;;;;;;5073287;28;20043;-64
2022/06/22 10:29:20;;;;;;;20.92;3.28;;;21.60;80.90;;;;;;5074648;28;20111;-68
2022/06/22 10:31:49;;;;;;;9.88;3.72;;;21.60;80.70;;;;;;5068961;28;20029;-65
2022/06/22 10:34:49;;;;;;;12.73;3.55;;;21.60;81.10;;;;;;5069224;28;20025;-64
2022/06/22 10:37:14;;;;;;;11.30;3.45;;;21.50;80.00;;;;;;5071004;28;20454;-65
2022/06/22 10:40:03;;;;;;;6.43;2.85;;;21.60;79.30;;;;;;5066235;28;20100;-64
2022/06/22 10:45:49;;;;;;;9.75;3.35;;;21.70;79.60;;;;;;5068835;28;20036;-65
2022/06/22 10:48:20;;;;;;;7.97;3.28;;;21.80;79.20;;;;;;5061087;28;20032;-64
2022/06/22 10:51:08;;;;;;;12.43;3.70;;;21.80;79.00;;;;;;5068286;28;20035;-65
2022/06/22 10:54:00;;;;;;;8.70;3.70;;;21.90;78.10;;;;;;5070844;28;20040;-64
2022/06/22 10:56:43;;;;;;;9.07;3.20;;;21.90;77.20;;;;;;5069711;28;20090;-64
2022/06/22 10:59:24;;;;;;;9.88;3.20;;;22.00;77.40;;;;;;5070769;28;20028;-64
2022/06/22 11:02:08;;;;;;;9.52;3.38;;;22.00;77.10;;;;;;5072239;28;20036;-64
2022/06/22 11:04:53;;;;;;;11.48;3.58;;;22.10;77.40;;;;;;5070840;28;20408;-64
2022/06/22 11:07:39;;;;;;;12.80;3.47;;;22.10;78.00;;;;;;5069710;28;20029;-64
2022/06/22 11:10:27;;;;;;;5.85;3.08;;;22.10;78.20;;;;;;5070523;28;20377;-64
2022/06/22 11:13:25;;;;;;;8.00;2.70;;;22.20;78.10;;;;;;5071355;28;20040;-64
2022/06/22 11:16:09;;;;;;;7.20;3.17;;;22.10;79.40;;;;;;5062972;28;20063;-64
2022/06/22 11:19:13;;;;;;;9.07;3.08;;;22.20;79.00;;;;;;5073864;28;20141;-64
2022/06/22 11:21:44;;;;;;;;;;;22.20;79.00;;;;;;5065407;28;20037;-64
2022/06/22 11:24:13;;;;;;;8.93;3.60;;;22.10;79.30;;;;;;5068992;28;19909;-64
2022/06/22 11:32:48;;;;;;;9.23;3.70;;;22.10;79.60;;;;;;5070337;28;20422;-67
2022/06/22 11:35:36;;;;;;;9.40;4.13;;;22.10;79.40;;;;;;5060647;28;20045;-67
2022/06/22 11:38:35;;;;;;;11.05;3.25;;;22.30;78.60;;;;;;5055688;28;20028;-67
2022/06/22 11:41:38;;;;;;;22.85;9.45;;;22.30;78.30;;;;;;5071981;28;20380;-67
2022/06/22 11:44:16;;;;;;;10.43;3.28;;;22.50;79.10;;;;;;5072175;28;20068;-67
2022/06/22 11:46:49;;;;;;;6.70;2.97;;;22.60;79.20;;;;;;5061666;28;20383;-67
2022/06/22 11:49:55;;;;;;;8.18;3.22;;;22.60;78.70;;;;;;5070780;28;20032;-67
2022/06/22 11:52:27;;;;;;;13.15;3.65;;;22.70;79.30;;;;;;5068983;28;20029;-67
2022/06/22 11:55:19;;;;;;;11.40;3.40;;;22.80;78.90;;;;;;5064654;28;20032;-67
2022/06/22 11:58:13;;;;;;;9.00;3.50;;;22.80;78.40;;;;;;5071912;28;20035;-67
2022/06/22 12:01:01;;;;;;;7.47;3.30;;;22.90;77.60;;;;;;5069582;28;20028;-67
2022/06/22 12:03:36;;;;;;;9.73;3.00;;;22.90;77.50;;;;;;5070473;28;20094;-67
2022/06/22 12:06:35;;;;;;;7.90;2.97;;;23.00;78.50;;;;;;5063133;28;20028;-67
2022/06/22 12:09:13;;;;;;;11.32;3.58;;;23.10;79.00;;;;;;5062549;28;20037;-67
2022/06/22 12:12:16;;;;;;;9.95;3.15;;;23.20;78.30;;;;;;5071388;28;20468;-67
2022/06/22 12:15:05;;;;;;;6.07;2.92;;;23.20;78.30;;;;;;5071147;28;20032;-67
2022/06/22 12:17:31;;;;;;;8.85;3.40;;;23.30;77.60;;;;;;5061366;28;20108;-67
2022/06/22 12:19:56;;;;;;;9.75;3.17;;;23.30;77.30;;;;;;5054914;28;20564;-67
2022/06/22 12:22:45;;;;;;;9.63;3.55;;;23.30;75.70;;;;;;5072677;28;20119;-67
2022/06/22 12:25:32;;;;;;;7.72;3.55;;;23.40;75.10;;;;;;5069367;28;20020;-65
2022/06/22 12:28:23;;;;;;;6.60;3.40;;;23.40;75.30;;;;;;5069460;28;20021;-64
2022/06/22 12:31:12;;;;;;;8.18;2.90;;;23.40;75.50;;;;;;5072348;28;20111;-64
2022/06/22 12:33:45;;;;;;;11.13;3.28;;;23.50;76.70;;;;;;5060766;28;20380;-64
2022/06/22 12:36:18;;;;;;;9.80;3.22;;;23.50;77.70;;;;;;5070679;28;20040;-64
2022/06/22 12:38:49;;;;;;;11.25;4.30;;;23.60;77.70;;;;;;5061349;28;20037;-64
2022/06/22 12:41:17;;;;;;;9.02;3.63;;;23.60;77.60;;;;;;5067389;28;20032;-64
2022/06/22 12:44:18;;;;;;;5.85;3.00;;;23.60;76.40;;;;;;5068943;28;20021;-65
2022/06/22 12:47:48;;;;;;;11.57;3.33;;;23.60;76.90;;;;;;5061760;28;20388;-64
2022/06/22 12:50:22;;;;;;;7.55;3.30;;;23.60;78.10;;;;;;4996861;28;20510;-65
2022/06/22 12:52:58;;;;;;;8.73;3.35;;;23.70;78.80;;;;;;5063025;28;20028;-64
2022/06/22 12:55:32;;;;;;;11.30;3.47;;;23.80;79.30;;;;;;5065984;28;20080;-64
2022/06/22 12:58:08;;;;;;;11.90;3.17;;;23.80;78.60;;;;;;5067588;28;20530;-64
2022/06/22 13:00:34;;;;;;;10.98;3.75;;;23.90;78.90;;;;;;5065800;28;20029;-64
2022/06/22 13:03:02;;;;;;;11.95;3.50;;;23.90;79.40;;;;;;5067466;28;20541;-64
2022/06/22 13:05:32;;;;;;;10.57;3.40;;;23.90;79.20;;;;;;5058158;28;20139;-64
2022/06/22 13:08:04;;;;;;;10.73;3.90;;;23.90;79.40;;;;;;5063671;28;20039;-65
2022/06/22 13:10:42;;;;;;;10.47;3.37;;;23.90;79.80;;;;;;5066503;28;20060;-64
2022/06/22 13:13:18;;;;;;;11.73;3.45;;;23.90;80.00;;;;;;5065303;28;20365;-65
2022/06/22 13:15:52;;;;;;;7.25;4.07;;;23.90;80.40;;;;;;5063502;28;20479;-64
2022/06/22 13:18:38;;;;;;;9.35;3.58;;;23.80;80.20;;;;;;5066203;28;20108;-64
2022/06/22 13:21:12;;;;;;;11.90;3.28;;;23.80;80.70;;;;;;5069241;28;20041;-65
2022/06/22 13:23:44;;;;;;;9.77;3.30;;;23.80;80.80;;;;;;5063742;28;20036;-64
2022/06/22 13:26:39;;;;;;;11.13;3.53;;;23.90;81.00;;;;;;5066096;28;20073;-64
2022/06/22 13:29:19;;;;;;;7.25;3.50;;;23.90;81.00;;;;;;5064146;28;20145;-64
2022/06/22 13:31:47;;;;;;;7.57;3.60;;;23.90;80.50;;;;;;5067896;28;20457;-64
2022/06/22 13:34:18;;;;;;;4.80;2.28;;;23.90;80.40;;;;;;5066833;28;20028;-64
2022/06/22 13:37:09;;;;;;;6.45;2.97;;;23.90;81.00;;;;;;5066963;28;20051;-65
2022/06/22 13:39:56;;;;;;;11.55;3.95;;;23.90;81.20;;;;;;5067790;28;20060;-64
2022/06/22 13:42:42;;;;;;;11.80;2.90;;;23.90;80.70;;;;;;5064614;28;20040;-65
2022/06/22 13:45:33;;;;;;;13.77;3.45;;;23.90;81.20;;;;;;5065889;28;20029;-65
2022/06/22 13:48:17;;;;;;;8.20;3.15;;;23.90;80.70;;;;;;5066025;28;20086;-65
2022/06/22 13:51:14;;;;;;;11.52;3.83;;;24.00;80.60;;;;;;5066615;28;20021;-65
2022/06/22 13:53:54;;;;;;;13.27;3.17;;;24.00;80.90;;;;;;5066688;28;20025;-65
2022/06/22 13:56:35;;;;;;;9.88;3.33;;;24.00;79.20;;;;;;5067552;28;20099;-65
2022/06/22 13:59:19;;;;;;;9.27;3.08;;;24.00;79.40;;;;;;5069895;28;20028;-65
2022/06/22 14:01:52;;;;;;;7.18;2.63;;;24.00;79.80;;;;;;5073625;28;20036;-66
2022/06/22 14:04:31;;;;;;;6.40;3.20;;;24.00;79.90;;;;;;5072612;28;20132;-64